Alts de San Benito, Puerto Rico
Current Conditions -  °F | °C
As of 8:04 AM on Tuesday 27 Jan 2015 (Local Time) from TJNR Reporting Station
Broken Clouds Broken Clouds  
Wind Chill: 78°   Ceiling: 3300
Heat Index: 80°   Visibility: 10mi
Dew Point: 72°   Wind: 0mph
Humidity: 81%   Direction: NA
Pressure: 30.04"   Gusts: NA
Location:  18.1494°N, 65.8294°W
Report Text: TJNR 271204Z AUTO 00000KT 10SM FEW023 SCT028 BKN033 26/22 A3004 RMK AO2 T02560222 $
Loading
Personal Weather Stations






























Interactive Weather Map New forecast layout! Learn more

10-Day Weather Forecast

Advertisements
Track Severe Weather on mobile